AUA4059 LOWW-LPMA
Flight info
| Callsign | AUA4059 |
|---|---|
| Flight time | N/A |
| Altitude | 34000 |
| Route | SOVIL DCT SITNI DCT BAGSI DCT MATIG DCT TRAUN DCT RAVED L856 AKABI/N0454F350 L856 TRA DCT LUTIX DCT BENOT DCT NEMOS DCT NINTU DCT MEBAK DCT REPSI DCT LERGA DCT MINSO DCT NARAK DCT AGN DCT PIPOR L866 PPN DCT MIRPO DCT DGO DCT NEA L14 ADINO DCT PORTA DCT EXONA DCT NAKOS DCT GALPA DCT RAKUN |
| Aircraft | A320/M-SDE3FGHIRWY/LB1 |
Departure
| Time | 2026-04-22 19:25 |
|---|---|
| Airport | Vienna International Airport (LOWW) |
Arrival
| Time | N/A |
|---|---|
| Airport | Cristiano Ronaldo International Airport (LPMA) |
| Time | Latitude | Longitude | Altitude | Speed | Heading |
|---|---|---|---|---|---|
| 2026-04-22 19:02 | 48.11778 | 16.56572 | 609 ft | 0 kts | 25° |
| 2026-04-22 19:13 | 48.11776 | 16.56570 | 609 ft | 3 kts | 25° |
| 2026-04-22 19:14 | 48.11752 | 16.56554 | 619 ft | 4 kts | 19° |
| 2026-04-22 19:14 | 48.11726 | 16.56544 | 609 ft | 4 kts | 4° |
| 2026-04-22 19:14 | 48.11702 | 16.56548 | 620 ft | 4 kts | 316° |
| 2026-04-22 19:14 | 48.11697 | 16.56557 | 614 ft | 0 kts | 296° |
| 2026-04-22 19:17 | 48.11710 | 16.56516 | 614 ft | 8 kts | 296° |
| 2026-04-22 19:17 | 48.11733 | 16.56445 | 617 ft | 7 kts | 296° |
| 2026-04-22 19:17 | 48.11762 | 16.56341 | 618 ft | 12 kts | 271° |
| 2026-04-22 19:18 | 48.11706 | 16.56279 | 615 ft | 9 kts | 205° |
| 2026-04-22 19:18 | 48.11694 | 16.56271 | 612 ft | 0 kts | 205° |
| 2026-04-22 19:19 | 48.11688 | 16.56266 | 621 ft | 6 kts | 205° |
| 2026-04-22 19:19 | 48.11610 | 16.56189 | 615 ft | 16 kts | 210° |
| 2026-04-22 19:20 | 48.11541 | 16.56256 | 620 ft | 12 kts | 116° |
| 2026-04-22 19:20 | 48.11489 | 16.56417 | 609 ft | 23 kts | 116° |
| 2026-04-22 19:20 | 48.11428 | 16.56603 | 620 ft | 15 kts | 116° |
| 2026-04-22 19:20 | 48.11405 | 16.56674 | 609 ft | 5 kts | 116° |
| 2026-04-22 19:21 | 48.11368 | 16.56788 | 609 ft | 20 kts | 116° |
| 2026-04-22 19:21 | 48.11301 | 16.56992 | 622 ft | 22 kts | 116° |
| 2026-04-22 19:21 | 48.11234 | 16.57195 | 619 ft | 21 kts | 116° |
| 2026-04-22 19:21 | 48.11171 | 16.57389 | 613 ft | 19 kts | 115° |
| 2026-04-22 19:22 | 48.11123 | 16.57540 | 612 ft | 14 kts | 116° |
| 2026-04-22 19:22 | 48.11099 | 16.57611 | 615 ft | 5 kts | 116° |
| 2026-04-22 19:22 | 48.11083 | 16.57648 | 614 ft | 4 kts | 136° |
| 2026-04-22 19:22 | 48.11035 | 16.57641 | 616 ft | 9 kts | 206° |
| 2026-04-22 19:23 | 48.11025 | 16.57634 | 609 ft | 0 kts | 206° |
| 2026-04-22 19:24 | 48.10960 | 16.57586 | 609 ft | 17 kts | 206° |
| 2026-04-22 19:24 | 48.10926 | 16.57498 | 617 ft | 9 kts | 292° |
| 2026-04-22 19:24 | 48.10953 | 16.57414 | 623 ft | 10 kts | 296° |
| 2026-04-22 19:25 | 48.11059 | 16.57089 | 616 ft | 69 kts | 296° |
| 2026-04-22 19:25 | 48.11355 | 16.56185 | 609 ft | 126 kts | 296° |
| 2026-04-22 19:25 | 48.11814 | 16.54783 | 632 ft | 170 kts | 297° |
| 2026-04-22 19:25 | 48.12216 | 16.53158 | 1246 ft | 168 kts | 272° |
| 2026-04-22 19:26 | 48.11858 | 16.51486 | 1849 ft | 176 kts | 242° |
| 2026-04-22 19:26 | 48.11221 | 16.49803 | 2222 ft | 197 kts | 244° |
| 2026-04-22 19:26 | 48.10538 | 16.47896 | 2532 ft | 219 kts | 245° |
| 2026-04-22 19:26 | 48.09791 | 16.45775 | 2793 ft | 243 kts | 244° |
| 2026-04-22 19:27 | 48.08835 | 16.43550 | 3200 ft | 263 kts | 238° |
| 2026-04-22 19:27 | 48.07742 | 16.41306 | 3890 ft | 269 kts | 237° |
| 2026-04-22 19:27 | 48.06602 | 16.39057 | 4635 ft | 273 kts | 236° |
| 2026-04-22 19:27 | 48.05455 | 16.36813 | 5386 ft | 277 kts | 236° |
| 2026-04-22 19:28 | 48.04288 | 16.34501 | 6141 ft | 280 kts | 239° |
| 2026-04-22 19:28 | 48.03463 | 16.31913 | 6828 ft | 276 kts | 261° |
| 2026-04-22 19:28 | 48.03312 | 16.29089 | 7533 ft | 273 kts | 276° |
| 2026-04-22 19:28 | 48.03369 | 16.26245 | 8274 ft | 276 kts | 276° |
| 2026-04-22 19:29 | 48.03429 | 16.23365 | 8964 ft | 279 kts | 276° |
| 2026-04-22 19:29 | 48.03485 | 16.20458 | 9655 ft | 281 kts | 276° |
| 2026-04-22 19:29 | 48.03539 | 16.17517 | 10247 ft | 289 kts | 276° |
| 2026-04-22 19:29 | 48.03598 | 16.14395 | 10410 ft | 312 kts | 275° |
| 2026-04-22 19:30 | 48.03640 | 16.12201 | 10499 ft | 326 kts | 275° |
| 2026-04-22 19:30 | 48.03726 | 16.07530 | 10705 ft | 353 kts | 275° |
| 2026-04-22 19:30 | 48.03791 | 16.03806 | 11199 ft | 361 kts | 275° |
| 2026-04-22 19:30 | 48.03849 | 16.00035 | 11775 ft | 365 kts | 274° |
| 2026-04-22 19:31 | 48.03901 | 15.96223 | 12338 ft | 369 kts | 274° |
| 2026-04-22 19:31 | 48.03950 | 15.92372 | 12902 ft | 372 kts | 274° |
| 2026-04-22 19:31 | 48.03999 | 15.88483 | 13432 ft | 376 kts | 274° |
| 2026-04-22 19:31 | 48.04056 | 15.84551 | 13982 ft | 380 kts | 275° |
| 2026-04-22 19:32 | 48.04117 | 15.80588 | 14491 ft | 383 kts | 275° |
| 2026-04-22 19:32 | 48.04177 | 15.76587 | 14979 ft | 387 kts | 275° |
| 2026-04-22 19:32 | 48.04233 | 15.72583 | 15457 ft | 391 kts | 275° |
| 2026-04-22 19:32 | 48.04287 | 15.68516 | 15951 ft | 395 kts | 275° |
| 2026-04-22 19:33 | 48.04338 | 15.64398 | 16444 ft | 398 kts | 275° |
| 2026-04-22 19:33 | 48.04390 | 15.60234 | 16927 ft | 402 kts | 275° |
| 2026-04-22 19:33 | 48.04443 | 15.56041 | 17419 ft | 406 kts | 275° |
| 2026-04-22 19:33 | 48.04496 | 15.51805 | 17873 ft | 409 kts | 275° |
| 2026-04-22 19:34 | 48.04547 | 15.47538 | 18345 ft | 413 kts | 275° |
| 2026-04-22 19:34 | 48.04593 | 15.43230 | 18815 ft | 416 kts | 274° |
| 2026-04-22 19:34 | 48.04633 | 15.38951 | 19253 ft | 419 kts | 274° |
| 2026-04-22 19:34 | 48.04680 | 15.34577 | 19683 ft | 422 kts | 275° |
| 2026-04-22 19:35 | 48.04743 | 15.30181 | 20102 ft | 424 kts | 275° |
| 2026-04-22 19:35 | 48.04815 | 15.25758 | 20502 ft | 427 kts | 275° |
| 2026-04-22 19:35 | 48.04867 | 15.22812 | 20769 ft | 429 kts | 275° |
| 2026-04-22 19:35 | 48.04974 | 15.16827 | 21291 ft | 433 kts | 275° |
| 2026-04-22 19:36 | 48.05051 | 15.12316 | 21648 ft | 436 kts | 275° |
| 2026-04-22 19:36 | 48.05123 | 15.07775 | 22003 ft | 439 kts | 275° |
| 2026-04-22 19:36 | 48.05187 | 15.03208 | 22359 ft | 441 kts | 274° |
| 2026-04-22 19:36 | 48.05244 | 14.98614 | 22701 ft | 443 kts | 274° |
| 2026-04-22 19:37 | 48.05298 | 14.94061 | 23045 ft | 445 kts | 274° |
| 2026-04-22 19:37 | 48.05284 | 14.89421 | 23373 ft | 448 kts | 271° |
| 2026-04-22 19:37 | 48.05153 | 14.84761 | 23689 ft | 451 kts | 269° |
| 2026-04-22 19:37 | 48.04943 | 14.80077 | 23995 ft | 453 kts | 268° |
| 2026-04-22 19:38 | 48.04696 | 14.75363 | 24305 ft | 455 kts | 268° |
| 2026-04-22 19:38 | 48.04446 | 14.70635 | 24610 ft | 457 kts | 268° |
| 2026-04-22 19:38 | 48.04214 | 14.65892 | 24890 ft | 459 kts | 269° |
| 2026-04-22 19:38 | 48.04002 | 14.61127 | 25157 ft | 461 kts | 269° |
| 2026-04-22 19:39 | 48.03806 | 14.56342 | 25420 ft | 463 kts | 269° |
| 2026-04-22 19:39 | 48.03616 | 14.51592 | 25669 ft | 464 kts | 269° |
| 2026-04-22 19:39 | 48.03419 | 14.46777 | 25924 ft | 466 kts | 269° |
| 2026-04-22 19:39 | 48.03218 | 14.41939 | 26174 ft | 468 kts | 269° |
| 2026-04-22 19:40 | 48.03013 | 14.37075 | 26396 ft | 470 kts | 269° |
| 2026-04-22 19:40 | 48.02805 | 14.32199 | 26623 ft | 471 kts | 269° |
| 2026-04-22 19:40 | 48.02592 | 14.27301 | 26839 ft | 473 kts | 269° |
| 2026-04-22 19:40 | 48.02375 | 14.22390 | 27050 ft | 475 kts | 269° |
| 2026-04-22 19:41 | 48.02154 | 14.17464 | 27265 ft | 476 kts | 269° |
| 2026-04-22 19:41 | 48.01931 | 14.12579 | 27454 ft | 478 kts | 269° |
| 2026-04-22 19:41 | 48.01699 | 14.07561 | 27665 ft | 479 kts | 269° |
| 2026-04-22 19:41 | 48.01470 | 14.02657 | 27842 ft | 481 kts | 268° |
| 2026-04-22 19:42 | 48.01236 | 13.97674 | 28004 ft | 482 kts | 268° |
| 2026-04-22 19:42 | 48.01002 | 13.92672 | 28187 ft | 483 kts | 268° |
| 2026-04-22 19:42 | 48.00768 | 13.87670 | 28435 ft | 482 kts | 268° |
| 2026-04-22 19:42 | 48.00532 | 13.82673 | 28649 ft | 482 kts | 268° |
| 2026-04-22 19:43 | 48.00045 | 13.72682 | 29083 ft | 482 kts | 268° |
| 2026-04-22 19:43 | 47.99797 | 13.67686 | 29286 ft | 482 kts | 268° |
| 2026-04-22 19:43 | 47.99549 | 13.62700 | 29531 ft | 481 kts | 268° |
| 2026-04-22 19:44 | 47.99299 | 13.57715 | 29764 ft | 481 kts | 268° |
| 2026-04-22 19:44 | 47.99053 | 13.52817 | 29999 ft | 480 kts | 268° |
| 2026-04-22 19:44 | 47.98802 | 13.47850 | 30240 ft | 479 kts | 268° |
| 2026-04-22 19:44 | 47.98548 | 13.42902 | 30494 ft | 478 kts | 268° |
| 2026-04-22 19:45 | 47.98291 | 13.37965 | 30746 ft | 477 kts | 268° |
| 2026-04-22 19:45 | 47.98033 | 13.33040 | 30994 ft | 475 kts | 268° |
| 2026-04-22 19:45 | 47.97775 | 13.28128 | 31243 ft | 474 kts | 268° |
| 2026-04-22 19:45 | 47.97514 | 13.23237 | 31494 ft | 473 kts | 269° |
| 2026-04-22 19:46 | 47.97253 | 13.18353 | 31745 ft | 471 kts | 269° |
| 2026-04-22 19:46 | 47.96992 | 13.13486 | 31995 ft | 470 kts | 269° |
| 2026-04-22 19:46 | 47.96734 | 13.08701 | 32240 ft | 468 kts | 269° |
| 2026-04-22 19:46 | 47.96469 | 13.03860 | 32452 ft | 468 kts | 269° |
| 2026-04-22 19:47 | 47.96201 | 12.99024 | 32659 ft | 468 kts | 268° |
| 2026-04-22 19:47 | 47.95930 | 12.94190 | 32864 ft | 467 kts | 269° |
| 2026-04-22 19:47 | 47.95752 | 12.90995 | 33000 ft | 467 kts | 269° |
| 2026-04-22 19:47 | 47.95391 | 12.84545 | 33273 ft | 466 kts | 269° |
| 2026-04-22 19:48 | 47.95120 | 12.79738 | 33470 ft | 465 kts | 268° |
| 2026-04-22 19:48 | 47.94846 | 12.74928 | 33662 ft | 465 kts | 268° |
| 2026-04-22 19:48 | 47.94568 | 12.70128 | 33850 ft | 465 kts | 268° |
| 2026-04-22 19:48 | 47.94287 | 12.65331 | 34043 ft | 464 kts | 268° |
| 2026-04-22 19:49 | 47.94004 | 12.60540 | 34226 ft | 464 kts | 268° |
| 2026-04-22 19:49 | 47.93723 | 12.55815 | 34285 ft | 465 kts | 268° |
| 2026-04-22 19:49 | 47.93153 | 12.46192 | 34295 ft | 466 kts | 268° |
| 2026-04-22 19:50 | 47.92575 | 12.36564 | 34295 ft | 466 kts | 268° |
| 2026-04-22 19:50 | 47.91988 | 12.26942 | 34294 ft | 466 kts | 268° |
| 2026-04-22 19:51 | 47.91377 | 12.17311 | 34295 ft | 467 kts | 268° |
| 2026-04-22 19:51 | 47.90764 | 12.07673 | 34293 ft | 467 kts | 268° |
| 2026-04-22 19:52 | 47.90150 | 11.98104 | 34288 ft | 467 kts | 268° |
| 2026-04-22 19:52 | 47.89531 | 11.88479 | 34295 ft | 467 kts | 268° |
| 2026-04-22 19:53 | 47.89011 | 11.80480 | 34290 ft | 467 kts | 268° |
| 2026-04-22 19:53 | 47.88266 | 11.69219 | 34295 ft | 467 kts | 268° |
| 2026-04-22 19:54 | 47.87626 | 11.59675 | 34302 ft | 466 kts | 268° |
| 2026-04-22 19:54 | 47.86977 | 11.50072 | 34306 ft | 466 kts | 268° |